Pleasant View, Colorado
Current Conditions -  °F | °C
As of 12:53 AM on Tuesday 21 Oct 2014 (Local Time) from KCEZ Reporting Station
Clear Clear  
Wind Chill: 51°   Ceiling: Unl
Heat Index: 51°   Visibility: 10mi
Dew Point: 40°   Wind: 3mph
Humidity: 66%   Direction: 140°SE
Pressure: 30.14"   Gusts: NA
Location:  37.59°N, 108.77°W
Report Text: KCEZ 210653Z AUTO 14003KT 10SM CLR 11/04 A3014 RMK AO2 SLP148 T01060044 402220022
Loading
Personal Weather Stations






























Interactive Weather Map
Tropical Storm Tracking
New forecast layout! Learn more

10-Day Weather Forecast

Advertisements
Track Severe Weather on mobile